»·PEaware :: N7GL KSNA-KSMX

N7GL :: KSNA-KSMX

FLIGHT INFORMATION

Flight Status: Arrived
Operator: Privately registered:
United States
More flights under this callsign
Pilot: Georg L. (13308)
Aircraft: BEECH AIRCRAFT SUPER KING AIR 350
(B350)
More flights by this aircraft type
Origin: KSNA John Wayne-Orange Co
United States
Destination: KSMX Santa Maria Pub/Capt Hancock
United States
More flights between these airports :: More routes between these airports
Route: +HHERO3 IKAYE RZS KOAKS
File this flight plan on PilotEdge
Remarks:
Altitude:
(Current/Filed)
24,000ft
Speed:
(Current/Filed)
299kts
Departed: 01-Dec-20 08:48 AM
Arrived: 01-Dec-20 09:30 AM
Distance/Time
Traveled:
147nm/0:42
Distance/Time
To Go:
Arrived

Flight Plot

Page will automatically refresh every two minutes.

Flight plan parsing failed; only flown route is shown


Map Options




Map Legend


Flown Route
Filed Route
Departure Airport
Arrival Airport
Navaid (VOR, NDB)
Fix

Horizontal Profiles

Position Reports

Time Latitude Longitude Heading Altitude Ground
Speed
01-Dec-20 08:19 33.672347 -117.866816 0 61ft 0kts
01-Dec-20 08:20 33.672347 -117.866816 207 61ft 0kts
01-Dec-20 08:21 33.672347 -117.866816 207 61ft 0kts
01-Dec-20 08:22 33.672347 -117.866816 208 61ft 0kts
01-Dec-20 08:23 33.672347 -117.866816 207 61ft 0kts
01-Dec-20 08:24 33.672347 -117.866816 207 61ft 0kts
01-Dec-20 08:25 33.672347 -117.866816 207 61ft 0kts
01-Dec-20 08:26 33.672347 -117.866816 208 61ft 0kts
01-Dec-20 08:27 33.672347 -117.866816 208 61ft 0kts
01-Dec-20 08:28 33.672347 -117.866816 208 61ft 0kts
01-Dec-20 08:29 33.672347 -117.866816 208 61ft 0kts
01-Dec-20 08:30 33.672347 -117.866816 208 61ft 0kts
01-Dec-20 08:31 33.672347 -117.866816 208 61ft 0kts
01-Dec-20 08:32 33.672347 -117.866816 208 61ft 0kts
01-Dec-20 08:33 33.672347 -117.866816 208 61ft 0kts
01-Dec-20 08:34 33.672347 -117.866816 208 61ft 0kts
01-Dec-20 08:35 33.672319 -117.867274 261 61ft 6kts
01-Dec-20 08:36 33.672315 -117.867311 266 61ft 0kts
01-Dec-20 08:37 33.672315 -117.867311 266 61ft 0kts
01-Dec-20 08:38 33.672315 -117.867311 266 61ft 0kts
01-Dec-20 08:39 33.672315 -117.867311 266 61ft 0kts
01-Dec-20 08:40 33.672315 -117.867311 266 61ft 0kts
01-Dec-20 08:41 33.672315 -117.867311 266 61ft 0kts
01-Dec-20 08:42 33.672315 -117.867311 266 61ft 0kts
01-Dec-20 08:43 33.672369 -117.867531 298 61ft 6kts
01-Dec-20 08:44 33.676526 -117.864964 27 61ft 24kts
01-Dec-20 08:45 33.679985 -117.863679 297 61ft 0kts
01-Dec-20 08:46 33.680661 -117.865403 265 61ft 16kts
01-Dec-20 08:47 33.652447 -117.880864 194 1146ft 158kts
01-Dec-20 08:48 33.607686 -117.893985 187 3186ft 177kts
01-Dec-20 08:49 33.560876 -117.911018 222 5063ft 189kts
01-Dec-20 08:50 33.520629 -117.956956 225 6770ft 209kts
01-Dec-20 08:51 33.478963 -118.006472 237 8615ft 213kts
01-Dec-20 08:52 33.448612 -118.067297 243 10440ft 214kts
01-Dec-20 08:53 33.418060 -118.129721 245 12253ft 219kts
01-Dec-20 08:54 33.419143 -118.196659 288 14034ft 205kts
01-Dec-20 08:55 33.432279 -118.263014 288 15799ft 205kts
01-Dec-20 08:56 33.451103 -118.327085 301 17583ft 205kts
01-Dec-20 08:57 33.477072 -118.386347 301 19232ft 198kts
01-Dec-20 08:58 33.502672 -118.444987 301 20163ft 214kts
01-Dec-20 08:59 33.536635 -118.511850 310 20159ft 251kts
01-Dec-20 09:00 33.581279 -118.581104 310 20150ft 272kts
01-Dec-20 09:01 33.628303 -118.654405 309 20146ft 281kts
01-Dec-20 09:02 33.681319 -118.722434 331 20177ft 282kts
01-Dec-20 09:04 33.751819 -118.766072 332 20145ft 286kts
01-Dec-20 09:05 33.822352 -118.809816 332 20166ft 287kts
01-Dec-20 09:06 33.893308 -118.853990 332 20190ft 287kts
01-Dec-20 09:07 33.964256 -118.898242 332 20107ft 291kts
01-Dec-20 09:08 34.038684 -118.944794 332 19033ft 307kts
01-Dec-20 09:09 34.114285 -118.992047 332 18019ft 306kts
01-Dec-20 09:10 34.169274 -119.066839 303 17012ft 308kts
01-Dec-20 09:11 34.213513 -119.155121 303 16010ft 305kts
01-Dec-20 09:12 34.256460 -119.243081 303 15014ft 301kts
01-Dec-20 09:13 34.298395 -119.329825 303 14017ft 297kts
01-Dec-20 09:14 34.339842 -119.415837 303 13028ft 295kts
01-Dec-20 09:15 34.380568 -119.500370 303 12016ft 288kts
01-Dec-20 09:16 34.420773 -119.584171 303 11016ft 287kts
01-Dec-20 09:17 34.460706 -119.667569 302 10027ft 284kts
01-Dec-20 09:18 34.499449 -119.748801 302 10001ft 279kts
01-Dec-20 09:19 34.538481 -119.829973 303 9114ft 273kts
01-Dec-20 09:20 34.576109 -119.907836 303 7751ft 262kts
01-Dec-20 09:20 34.606672 -119.971555 303 6500ft 262kts
01-Dec-20 09:22 34.648992 -120.060507 303 5995ft 259kts
01-Dec-20 09:22 34.678936 -120.123147 303 5998ft 256kts
01-Dec-20 09:24 34.721693 -120.212777 303 4518ft 261kts
01-Dec-20 09:24 34.751858 -120.274797 308 4002ft 253kts
01-Dec-20 09:26 34.808322 -120.344697 316 2263ft 232kts
01-Dec-20 09:26 34.843108 -120.386559 316 1664ft 194kts
01-Dec-20 09:27 34.871725 -120.420482 314 929ft 113kts
01-Dec-20 09:28 34.893662 -120.446915 315 271ft 94kts
01-Dec-20 09:29 34.898065 -120.449665 138 266ft 12kts
01-Dec-20 09:30 34.896989 -120.446633 131 266ft 0kts
01-Dec-20 09:31 34.896989 -120.446634 131 266ft 0kts

Navigation Log

Ident Type
Flight plan parsing failed, navigation log unavailable